Litchville, North Dakota
Current Conditions -  °F | °C
As of 10:35 AM on Tuesday 27 Jan 2015 (Local Time) from KBAC Reporting Station
Haze Haze  
Wind Chill: 18°   Ceiling: 200
Heat Index: 28°   Visibility: 1mi
Dew Point: 28°   Wind: 13mph
Humidity: 100%   Direction: 160°SSE
Pressure: 30.01"   Gusts: NA
Location:  46.65°N, 98.19°W
Report Text: KBAC 271635Z AUTO 16011KT 1SM BR OVC002 M02/M02 A3001 RMK AO2
Loading
Personal Weather Stations






























Interactive Weather Map New forecast layout! Learn more

10-Day Weather Forecast

Advertisements
Track Severe Weather on mobile